FredonyerEastRWIS Atmospheric Data: 03/22/2019 Summary  Detailed Graphs  Station List

  Temperature     Wind Precipitation Visibility
Timestamp Air Wet
Bulb
Dew-
point
24-hr
Max
24-hr
Min
Relative
Humidity
Atmospheric
Pressure
Avg
Speed
Avg
Dir
Spot
Speed
Spot
Dir
Max
Speed
Max
Dir
  Rate Situation Start End 1 hr 3 hr 6 hr 12 hr 24 hr   Situation
Date Time °F °F °F °F °F % in Hg mph ° mph ° mph ° Y/N in/hr text Date Time Date Time in in in in in mi text
03/22/2019 12:08 AM 31.82 30.92 29.66 49.10 27.68 91.0 Not Reported 0.22 E 0.45 S 4.25 S No 0.000 No Precipitation 03/20/2019 06:07 PM 03/20/2019 06:12 PM 0.000 0.000 0.000 0.000 0.000 Not Reported Not Reported
03/22/2019 12:23 AM 30.38 29.84 29.12 49.10 27.68 95.0 Not Reported 1.12 SE 0.00 NW 1.57 S No 0.000 No Precipitation 03/20/2019 06:07 PM 03/20/2019 06:12 PM 0.000 0.000 0.000 0.000 0.000 Not Reported Not Reported
03/22/2019 12:38 AM 29.30 29.12 28.40 49.10 27.68 96.0 Not Reported 1.79 NW 1.57 NE 1.79 SE No 0.000 No Precipitation 03/20/2019 06:07 PM 03/20/2019 06:12 PM 0.000 0.000 0.000 0.000 0.000 Not Reported Not Reported
03/22/2019 12:53 AM 28.94 28.76 28.40 49.10 27.68 97.0 Not Reported 1.34 NE 0.67 E 1.79 NE No 0.000 No Precipitation 03/20/2019 06:07 PM 03/20/2019 06:12 PM 0.000 0.000 0.000 0.000 0.000 Not Reported Not Reported
03/22/2019 01:08 AM 28.58 28.40 28.04 49.10 27.68 97.0 Not Reported 0.89 N 1.34 N 2.46 NE No 0.000 No Precipitation 03/20/2019 06:07 PM 03/20/2019 06:12 PM 0.000 0.000 0.000 0.000 0.000 Not Reported Not Reported
03/22/2019 01:23 AM 28.58 28.40 28.04 49.10 27.68 98.0 Not Reported 0.00 NE 0.45 NE 2.68 N No 0.000 No Precipitation 03/20/2019 06:07 PM 03/20/2019 06:12 PM 0.000 0.000 0.000 0.000 0.000 Not Reported Not Reported
03/22/2019 01:38 AM 28.76 28.58 28.22 49.10 27.68 98.0 Not Reported 0.22 W 0.00 W 1.79 E No 0.000 No Precipitation 03/20/2019 06:07 PM 03/20/2019 06:12 PM 0.000 0.000 0.000 0.000 0.000 Not Reported Not Reported
03/22/2019 01:53 AM 30.02 29.84 29.66 49.10 27.68 98.0 Not Reported 1.12 W 1.57 W 2.46 NW No 0.000 No Precipitation 03/20/2019 06:07 PM 03/20/2019 06:12 PM 0.000 0.000 0.000 0.000 0.000 Not Reported Not Reported
03/22/2019 02:08 AM 31.82 30.74 28.94 49.10 27.68 89.0 Not Reported 0.00 W 0.00 SE 4.25 SW No 0.000 No Precipitation 03/20/2019 06:07 PM 03/20/2019 06:12 PM 0.000 0.000 0.000 0.000 0.000 Not Reported Not Reported
03/22/2019 02:23 AM 30.20 29.48 28.40 49.10 27.68 92.0 Not Reported 2.01 W 0.67 NW 2.68 SE No 0.000 No Precipitation 03/20/2019 06:07 PM 03/20/2019 06:12 PM 0.000 0.000 0.000 0.000 0.000 Not Reported Not Reported
03/22/2019 02:38 AM 29.30 28.76 27.86 49.10 27.68 93.0 Not Reported 0.67 W 0.67 W 4.03 NW No 0.000 No Precipitation 03/20/2019 06:07 PM 03/20/2019 06:12 PM 0.000 0.000 0.000 0.000 0.000 Not Reported Not Reported
03/22/2019 02:53 AM 28.76 28.40 27.86 49.10 27.68 96.0 Not Reported 0.22 W 1.34 W 1.34 N No 0.000 No Precipitation 03/20/2019 06:07 PM 03/20/2019 06:12 PM 0.000 0.000 0.000 0.000 0.000 Not Reported Not Reported
03/22/2019 03:08 AM 27.68 27.32 26.78 49.10 27.68 96.0 Not Reported 0.00 S 0.00 S 2.24 S No 0.000 No Precipitation 03/20/2019 06:07 PM 03/20/2019 06:12 PM 0.000 0.000 0.000 0.000 0.000 Not Reported Not Reported
03/22/2019 03:23 AM 27.32 27.14 26.60 49.10 27.32 97.0 Not Reported 0.22 W 1.12 NW 1.57 SW No 0.000 No Precipitation 03/20/2019 06:07 PM 03/20/2019 06:12 PM 0.000 0.000 0.000 0.000 0.000 Not Reported Not Reported
03/22/2019 03:39 AM 27.14 26.96 26.60 49.10 27.14 97.0 Not Reported 0.45 NW 1.57 NW 1.57 NW No 0.000 No Precipitation 03/20/2019 06:07 PM 03/20/2019 06:12 PM 0.000 0.000 0.000 0.000 0.000 Not Reported Not Reported
03/22/2019 03:53 AM 27.32 27.14 26.78 49.10 26.96 97.0 Not Reported 0.89 E 0.89 S 2.68 NW No 0.000 No Precipitation 03/20/2019 06:07 PM 03/20/2019 06:12 PM 0.000 0.000 0.000 0.000 0.000 Not Reported Not Reported
03/22/2019 04:08 AM 27.14 26.96 26.42 49.10 26.96 97.0 Not Reported 0.89 E 0.00 NE 2.01 W No 0.000 No Precipitation 03/20/2019 06:07 PM 03/20/2019 06:12 PM 0.000 0.000 0.000 0.000 0.000 Not Reported Not Reported
03/22/2019 04:23 AM 26.42 26.06 25.70 49.10 26.42 97.0 Not Reported 0.89 NE 0.45 N 0.89 E No 0.000 No Precipitation 03/20/2019 06:07 PM 03/20/2019 06:12 PM 0.000 0.000 0.000 0.000 0.000 Not Reported Not Reported
03/22/2019 04:38 AM 26.06 25.88 25.52 49.10 25.88 97.0 Not Reported 0.22 N 0.00 N 1.79 NW No 0.000 No Precipitation 03/20/2019 06:07 PM 03/20/2019 06:12 PM 0.000 0.000 0.000 0.000 0.000 Not Reported Not Reported
03/22/2019 04:53 AM 25.70 25.52 25.16 49.10 25.70 97.0 Not Reported 0.45 SE 0.00 SE 1.34 S No 0.000 No Precipitation 03/20/2019 06:07 PM 03/20/2019 06:12 PM 0.000 0.000 0.000 0.000 0.000 Not Reported Not Reported
03/22/2019 05:08 AM 26.06 25.88 25.52 49.10 25.70 98.0 Not Reported 0.67 W 0.00 NW 1.12 N No 0.000 No Precipitation 03/20/2019 06:07 PM 03/20/2019 06:12 PM 0.000 0.000 0.000 0.000 0.000 Not Reported Not Reported
03/22/2019 05:23 AM 26.06 25.88 25.52 49.10 25.70 98.0 Not Reported 0.67 W 0.22 SW 2.46 NW No 0.000 No Precipitation 03/20/2019 06:07 PM 03/20/2019 06:12 PM 0.000 0.000 0.000 0.000 0.000 Not Reported Not Reported
03/22/2019 05:38 AM 26.06 26.06 25.70 49.10 25.70 98.0 Not Reported 1.57 W 0.22 NW 1.34 W No 0.000 No Precipitation 03/20/2019 06:07 PM 03/20/2019 06:12 PM 0.000 0.000 0.000 0.000 0.000 Not Reported Not Reported
03/22/2019 05:53 AM 26.96 26.60 26.06 49.10 25.70 96.0 Not Reported 1.34 NW 4.70 NW 4.03 NW No 0.000 No Precipitation 03/20/2019 06:07 PM 03/20/2019 06:12 PM 0.000 0.000 0.000 0.000 0.000 Not Reported Not Reported
03/22/2019 06:08 AM 27.50 27.14 26.78 49.10 25.70 96.0 Not Reported 1.34 W 1.34 W 6.93 NW No 0.000 No Precipitation 03/20/2019 06:07 PM 03/20/2019 06:12 PM 0.000 0.000 0.000 0.000 0.000 Not Reported Not Reported
03/22/2019 06:23 AM 29.30 28.40 27.14 49.10 25.70 91.0 Not Reported 1.57 W 1.79 NW 3.13 SW No 0.000 No Precipitation 03/20/2019 06:07 PM 03/20/2019 06:12 PM 0.000 0.000 0.000 0.000 0.000 Not Reported Not Reported
03/22/2019 06:38 AM 28.04 27.68 26.96 49.10 25.70 95.0 Not Reported 0.67 NE 0.00 NE 2.46 NW No 0.000 No Precipitation 03/20/2019 06:07 PM 03/20/2019 06:12 PM 0.000 0.000 0.000 0.000 0.000 Not Reported Not Reported
03/22/2019 06:53 AM 28.04 27.50 26.78 49.10 25.70 94.0 Not Reported 0.00 N 0.67 N 2.46 SE No 0.000 No Precipitation 03/20/2019 06:07 PM 03/20/2019 06:12 PM 0.000 0.000 0.000 0.000 0.000 Not Reported Not Reported
03/22/2019 07:08 AM 27.68 27.32 26.60 49.10 25.70 95.0 Not Reported 0.45 S 0.67 S 2.68 N No 0.000 No Precipitation 03/20/2019 06:07 PM 03/20/2019 06:12 PM 0.000 0.000 0.000 0.000 0.000 Not Reported Not Reported
03/22/2019 07:23 AM 27.68 27.32 26.78 49.10 25.70 96.0 Not Reported 1.12 N 0.00 N 1.57 NW No 0.000 No Precipitation 03/20/2019 06:07 PM 03/20/2019 06:12 PM 0.000 0.000 0.000 0.000 0.000 Not Reported Not Reported
03/22/2019 07:38 AM 27.86 27.50 26.96 49.10 25.70 96.0 Not Reported 0.89 SE 1.57 SE 2.24 N No 0.000 No Precipitation 03/20/2019 06:07 PM 03/20/2019 06:12 PM 0.000 0.000 0.000 0.000 0.000 Not Reported Not Reported
03/22/2019 07:53 AM 28.22 27.86 27.32 49.10 25.70 96.0 Not Reported 0.45 SE 0.00 N 0.67 SE No 0.000 No Precipitation 03/20/2019 06:07 PM 03/20/2019 06:12 PM 0.000 0.000 0.000 0.000 0.000 Not Reported Not Reported
03/22/2019 08:08 AM 29.30 28.94 28.22 49.10 25.70 95.0 Not Reported 0.45 NW 1.12 W 1.79 NE No 0.000 No Precipitation 03/20/2019 06:07 PM 03/20/2019 06:12 PM 0.000 0.000 0.000 0.000 0.000 Not Reported Not Reported
03/22/2019 08:23 AM 32.00 30.56 28.04 49.10 25.70 85.0 Not Reported 3.58 S 1.34 SW 5.82 NW No 0.000 No Precipitation 03/20/2019 06:07 PM 03/20/2019 06:12 PM 0.000 0.000 0.000 0.000 0.000 Not Reported Not Reported
03/22/2019 08:38 AM 33.80 31.64 28.04 49.10 25.70 78.0 Not Reported 2.91 SW 7.38 W 4.47 NW No 0.000 No Precipitation 03/20/2019 06:07 PM 03/20/2019 06:12 PM 0.000 0.000 0.000 0.000 0.000 Not Reported Not Reported
03/22/2019 08:53 AM 34.88 32.36 28.22 49.10 25.70 75.0 Not Reported 4.47 SW 2.91 SW 5.82 S No 0.000 No Precipitation 03/20/2019 06:07 PM 03/20/2019 06:12 PM 0.000 0.000 0.000 0.000 0.000 Not Reported Not Reported
03/22/2019 09:08 AM 36.32 33.08 28.04 49.10 25.70 71.0 Not Reported 4.03 SW 2.24 SW 6.71 SW No 0.000 No Precipitation 03/20/2019 06:07 PM 03/20/2019 06:12 PM 0.000 0.000 0.000 0.000 0.000 Not Reported Not Reported
03/22/2019 09:23 AM 36.14 32.72 27.50 49.10 25.70 69.0 Not Reported 3.36 SW 2.91 SW 6.71 SW No 0.000 No Precipitation 03/20/2019 06:07 PM 03/20/2019 06:12 PM 0.000 0.000 0.000 0.000 0.000 Not Reported Not Reported
03/22/2019 09:38 AM 36.68 32.72 26.24 49.10 25.70 64.0 Not Reported 2.46 NW 2.24 S 6.04 S No 0.000 No Precipitation 03/20/2019 06:07 PM 03/20/2019 06:12 PM 0.000 0.000 0.000 0.000 0.000 Not Reported Not Reported
03/22/2019 09:53 AM 36.86 32.54 25.88 49.10 25.70 63.0 Not Reported 4.03 SW 2.91 SW 5.59 S No 0.000 No Precipitation 03/20/2019 06:07 PM 03/20/2019 06:12 PM 0.000 0.000 0.000 0.000 0.000 Not Reported Not Reported
03/22/2019 10:08 AM 36.68 32.72 26.06 49.10 25.70 64.0 Not Reported 3.36 W 4.92 S 7.83 SE No 0.000 No Precipitation 03/20/2019 06:07 PM 03/20/2019 06:12 PM 0.000 0.000 0.000 0.000 0.000 Not Reported Not Reported
03/22/2019 10:23 AM 36.68 32.90 26.78 49.10 25.70 66.0 Not Reported 8.05 S 1.57 W 10.07 SE No 0.000 No Precipitation 03/20/2019 06:07 PM 03/20/2019 06:12 PM 0.000 0.000 0.000 0.000 0.000 Not Reported Not Reported
03/22/2019 10:38 AM 36.86 32.72 26.24 49.10 25.70 64.0 Not Reported 4.92 SW 11.63 S 10.96 S No 0.000 No Precipitation 03/20/2019 06:07 PM 03/20/2019 06:12 PM 0.000 0.000 0.000 0.000 0.000 Not Reported Not Reported
03/22/2019 10:53 AM 37.40 33.26 26.78 49.10 25.70 64.0 Not Reported 3.58 S 4.47 W 15.43 S No 0.000 No Precipitation 03/20/2019 06:07 PM 03/20/2019 06:12 PM 0.000 0.000 0.000 0.000 0.000 Not Reported Not Reported
03/22/2019 11:08 AM 37.58 33.26 26.60 49.10 25.70 63.0 Not Reported 4.03 SW 2.91 SW 12.53 S No 0.000 No Precipitation 03/20/2019 06:07 PM 03/20/2019 06:12 PM 0.000 0.000 0.000 0.000 0.000 Not Reported Not Reported
03/22/2019 11:23 AM 37.40 32.90 25.52 49.10 25.70 61.0 Not Reported 6.71 S 3.58 S 10.29 S No 0.000 No Precipitation 03/20/2019 06:07 PM 03/20/2019 06:12 PM 0.000 0.000 0.000 0.000 0.000 Not Reported Not Reported
03/22/2019 11:38 AM 37.76 33.26 26.06 49.10 25.70 61.0 Not Reported 4.25 W 2.68 NW 11.86 S No 0.000 No Precipitation 03/20/2019 06:07 PM 03/20/2019 06:12 PM 0.000 0.000 0.000 0.000 0.000 Not Reported Not Reported
03/22/2019 11:53 AM 38.30 33.62 26.06 49.10 25.70 60.0 Not Reported 4.92 SE 6.04 E 9.84 S No 0.000 No Precipitation 03/20/2019 06:07 PM 03/20/2019 06:12 PM 0.000 0.000 0.000 0.000 0.000 Not Reported Not Reported
03/22/2019 12:08 PM 38.48 33.98 27.14 49.10 25.70 62.0 Not Reported 4.70 SW 3.58 SW 9.17 SE No 0.000 No Precipitation 03/20/2019 06:07 PM 03/20/2019 06:12 PM 0.000 0.000 0.000 0.000 0.000 Not Reported Not Reported
03/22/2019 12:23 PM 38.48 33.98 27.32 49.10 25.70 63.0 Not Reported 5.14 S 4.25 SE 8.28 S No 0.000 No Precipitation 03/20/2019 06:07 PM 03/20/2019 06:12 PM 0.000 0.000 0.000 0.000 0.000 Not Reported Not Reported
03/22/2019 12:38 PM 39.02 34.70 28.04 49.10 25.70 64.0 Not Reported 2.91 S 2.24 SW 8.72 SE No 0.000 No Precipitation 03/20/2019 06:07 PM 03/20/2019 06:12 PM 0.000 0.000 0.000 0.000 0.000 Not Reported Not Reported
03/22/2019 12:53 PM 38.66 34.34 28.04 49.10 25.70 65.0 Not Reported 4.70 SW 6.71 S 11.18 S No 0.000 No Precipitation 03/20/2019 06:07 PM 03/20/2019 06:12 PM 0.000 0.000 0.000 0.000 0.000 Not Reported Not Reported
03/22/2019 01:08 PM 37.76 34.16 28.58 49.10 25.70 68.0 Not Reported 6.71 S 8.50 S 8.95 S No 0.000 No Precipitation 03/20/2019 06:07 PM 03/20/2019 06:12 PM 0.000 0.000 0.000 0.000 0.000 Not Reported Not Reported
03/22/2019 01:23 PM 38.84 34.70 28.40 49.10 25.70 65.0 Not Reported 3.58 W 7.61 S 10.07 SE No 0.000 No Precipitation 03/20/2019 06:07 PM 03/20/2019 06:12 PM 0.000 0.000 0.000 0.000 0.000 Not Reported Not Reported
03/22/2019 01:38 PM 39.38 35.06 28.94 49.10 25.70 65.0 Not Reported 4.47 S 4.47 SW 7.61 S No 0.000 No Precipitation 03/20/2019 06:07 PM 03/20/2019 06:12 PM 0.000 0.000 0.000 0.000 0.000 Not Reported Not Reported
03/22/2019 01:53 PM 40.28 35.60 28.76 49.10 25.70 62.0 Not Reported 3.58 S 4.25 SE 12.97 S No 0.000 No Precipitation 03/20/2019 06:07 PM 03/20/2019 06:12 PM 0.000 0.000 0.000 0.000 0.000 Not Reported Not Reported
03/22/2019 02:08 PM 40.46 35.78 28.94 49.10 25.70 62.0 Not Reported 3.13 SW 5.37 W 11.18 S No 0.000 No Precipitation 03/20/2019 06:07 PM 03/20/2019 06:12 PM 0.000 0.000 0.000 0.000 0.000 Not Reported Not Reported
03/22/2019 02:23 PM 40.10 35.60 28.94 49.10 25.70 63.0 Not Reported 4.47 SE 3.58 W 10.74 S No 0.000 No Precipitation 03/20/2019 06:07 PM 03/20/2019 06:12 PM 0.000 0.000 0.000 0.000 0.000 Not Reported Not Reported
03/22/2019 02:38 PM 39.74 35.24 28.58 49.10 25.70 63.0 Not Reported 5.37 W 4.47 W 8.95 W No 0.000 No Precipitation 03/20/2019 06:07 PM 03/20/2019 06:12 PM 0.000 0.000 0.000 0.000 0.000 Not Reported Not Reported
03/22/2019 02:53 PM 39.38 35.24 29.48 49.10 25.70 66.0 Not Reported 3.36 NW 4.47 S 8.72 W No 0.000 No Precipitation 03/20/2019 06:07 PM 03/20/2019 06:12 PM 0.000 0.000 0.000 0.000 0.000 Not Reported Not Reported
03/22/2019 03:08 PM 38.84 35.42 30.56 49.10 25.70 71.0 Not Reported 3.36 SW 3.58 SW 10.74 SW No 0.000 No Precipitation 03/20/2019 06:07 PM 03/20/2019 06:12 PM 0.000 0.000 0.000 0.000 0.000 Not Reported Not Reported
03/22/2019 03:23 PM 38.48 35.60 31.46 49.10 25.70 74.0 Not Reported 3.36 SW 4.70 SW 7.61 SW No 0.000 No Precipitation 03/20/2019 06:07 PM 03/20/2019 06:12 PM 0.000 0.000 0.000 0.000 0.000 Not Reported Not Reported
03/22/2019 03:39 PM 38.12 36.14 32.90 48.92 25.70 81.0 Not Reported 4.25 SW 2.24 SW 6.49 S No 0.000 No Precipitation 03/20/2019 06:07 PM 03/20/2019 06:12 PM 0.000 0.000 0.000 0.000 0.000 Not Reported Not Reported
03/22/2019 03:53 PM 38.12 35.60 32.00 48.92 25.70 78.0 Not Reported 6.04 SW 7.16 S 7.61 SW No 0.000 No Precipitation 03/20/2019 06:07 PM 03/20/2019 06:12 PM 0.000 0.000 0.000 0.000 0.000 Not Reported Not Reported
03/22/2019 04:08 PM 38.30 35.60 31.82 47.12 25.70 76.0 Not Reported 5.37 W 2.91 E 9.84 W No 0.000 No Precipitation 03/20/2019 06:07 PM 03/20/2019 06:12 PM 0.000 0.000 0.000 0.000 0.000 Not Reported Not Reported
03/22/2019 04:23 PM 38.12 35.60 31.82 46.40 25.70 77.0 Not Reported 6.93 S 2.24 NW 9.84 SE No 0.000 No Precipitation 03/20/2019 06:07 PM 03/20/2019 06:12 PM 0.000 0.000 0.000 0.000 0.000 Not Reported Not Reported
03/22/2019 04:38 PM 38.48 35.42 31.28 46.04 25.70 74.0 Not Reported 4.70 SW 8.95 S 10.74 S No 0.000 No Precipitation 03/20/2019 06:07 PM 03/20/2019 06:12 PM 0.000 0.000 0.000 0.000 0.000 Not Reported Not Reported
03/22/2019 04:53 PM 38.12 35.60 32.00 46.04 25.70 78.0 Not Reported 3.36 W 4.70 SE 9.62 S No 0.000 No Precipitation 03/20/2019 06:07 PM 03/20/2019 06:12 PM 0.000 0.000 0.000 0.000 0.000 Not Reported Not Reported
03/22/2019 05:08 PM 37.94 35.24 31.46 45.86 25.70 77.0 Not Reported 4.03 W 6.71 SW 10.07 SE No 0.000 No Precipitation 03/20/2019 06:07 PM 03/20/2019 06:12 PM 0.000 0.000 0.000 0.000 0.000 Not Reported Not Reported
03/22/2019 05:23 PM 37.58 35.06 31.28 45.14 25.70 77.0 Not Reported 3.80 SW 8.05 SW 10.51 SW No 0.000 No Precipitation 03/20/2019 06:07 PM 03/20/2019 06:12 PM 0.000 0.000 0.000 0.000 0.000 Not Reported Not Reported
03/22/2019 05:38 PM 37.58 35.06 31.82 45.14 25.70 79.0 Not Reported 2.68 W 2.91 S 8.05 W No 0.000 No Precipitation 03/20/2019 06:07 PM 03/20/2019 06:12 PM 0.000 0.000 0.000 0.000 0.000 Not Reported Not Reported
03/22/2019 05:53 PM 37.94 35.24 31.46 44.60 25.70 76.0 Not Reported 4.70 NW 5.59 SE 8.28 W No 0.000 No Precipitation 03/20/2019 06:07 PM 03/20/2019 06:12 PM 0.000 0.000 0.000 0.000 0.000 Not Reported Not Reported
03/22/2019 06:08 PM 37.58 35.06 31.64 44.06 25.70 78.0 Not Reported 2.46 S 0.89 W 8.05 SE No 0.000 No Precipitation 03/20/2019 06:07 PM 03/20/2019 06:12 PM 0.000 0.000 0.000 0.000 0.000 Not Reported Not Reported
03/22/2019 06:23 PM 37.94 35.24 31.82 42.98 25.70 77.0 Not Reported 2.01 W 2.68 NW 4.03 NW No 0.000 No Precipitation 03/20/2019 06:07 PM 03/20/2019 06:12 PM 0.000 0.000 0.000 0.000 0.000 Not Reported Not Reported
03/22/2019 06:38 PM 37.58 35.06 31.82 42.44 25.70 78.0 Not Reported 2.68 S 2.68 SE 6.93 SW No 0.000 No Precipitation 03/20/2019 06:07 PM 03/20/2019 06:12 PM 0.000 0.000 0.000 0.000 0.000 Not Reported Not Reported
03/22/2019 06:53 PM 37.40 35.06 32.00 41.72 25.70 80.0 Not Reported 6.04 W 4.03 W 6.93 SW No 0.000 No Precipitation 03/20/2019 06:07 PM 03/20/2019 06:12 PM 0.000 0.000 0.000 0.000 0.000 Not Reported Not Reported
03/22/2019 07:08 PM 37.04 35.06 32.00 41.00 25.70 81.0 Not Reported 1.12 NW 2.24 N 7.83 W No 0.000 No Precipitation 03/20/2019 06:07 PM 03/20/2019 06:12 PM 0.000 0.000 0.000 0.000 0.000 Not Reported Not Reported
03/22/2019 07:23 PM 36.86 34.88 32.00 40.46 25.70 82.0 Not Reported 4.25 NW 2.68 W 4.25 SW No 0.000 No Precipitation 03/20/2019 06:07 PM 03/20/2019 06:12 PM 0.000 0.000 0.000 0.000 0.000 Not Reported Not Reported
03/22/2019 07:38 PM 36.86 35.06 32.54 40.46 25.70 84.0 Not Reported 3.13 W 2.46 W 6.26 W No 0.000 No Precipitation 03/20/2019 06:07 PM 03/20/2019 06:12 PM 0.000 0.000 0.000 0.000 0.000 Not Reported Not Reported
03/22/2019 07:53 PM 35.96 34.70 32.90 40.46 25.70 88.0 Not Reported 3.80 NW 3.36 NW 6.71 NW No 0.000 No Precipitation 03/20/2019 06:07 PM 03/20/2019 06:12 PM 0.000 0.000 0.000 0.000 0.000 Not Reported Not Reported
03/22/2019 08:08 PM 35.78 34.70 33.08 40.46 25.70 89.0 Not Reported 1.79 W 0.00 E 5.37 W No 0.000 No Precipitation 03/20/2019 06:07 PM 03/20/2019 06:12 PM 0.000 0.000 0.000 0.000 0.000 Not Reported Not Reported
03/22/2019 08:23 PM 35.42 34.34 32.90 40.46 25.70 90.0 Not Reported 2.91 SW 1.57 W 5.14 NW No 0.000 No Precipitation 03/20/2019 06:07 PM 03/20/2019 06:12 PM 0.000 0.000 0.000 0.000 0.000 Not Reported Not Reported
03/22/2019 08:38 PM 35.06 34.16 33.08 40.46 25.70 92.0 Not Reported 2.01 S 1.34 NW 4.47 S No 0.000 No Precipitation 03/20/2019 06:07 PM 03/20/2019 06:12 PM 0.000 0.000 0.000 0.000 0.000 Not Reported Not Reported
03/22/2019 08:53 PM 34.34 33.80 33.08 40.46 25.70 95.0 Not Reported 0.67 E 0.22 NE 1.79 S No 0.000 No Precipitation 03/22/2019 08:39 PM 03/22/2019 08:44 PM 0.004 0.004 0.004 0.004 0.004 Not Reported Not Reported
03/22/2019 09:08 PM 33.80 33.44 33.08 40.46 25.70 97.0 Not Reported 1.12 NW 0.45 NW 1.12 E No 0.000 No Precipitation 03/22/2019 08:39 PM 03/22/2019 08:44 PM 0.004 0.004 0.004 0.004 0.004 Not Reported Not Reported
03/22/2019 09:23 PM 34.16 33.80 33.62 40.46 25.70 98.0 Not Reported 0.67 S 0.00 S 1.12 W No 0.000 No Precipitation 03/22/2019 09:11 PM 03/22/2019 09:16 PM 0.008 0.008 0.008 0.008 0.008 Not Reported Not Reported
03/22/2019 09:38 PM 33.98 33.80 33.44 40.46 25.70 98.0 Not Reported 0.00 N 0.45 SE 0.89 NW No 0.000 No Precipitation 03/22/2019 09:11 PM 03/22/2019 09:16 PM 0.008 0.008 0.008 0.008 0.008 Not Reported Not Reported
03/22/2019 09:53 PM 33.62 33.44 33.26 40.46 25.70 98.0 Not Reported 0.00 NW 0.00 NW 1.34 N No 0.000 No Precipitation 03/22/2019 09:11 PM 03/22/2019 09:16 PM 0.004 0.008 0.008 0.008 0.008 Not Reported Not Reported
03/22/2019 10:08 PM 33.62 33.44 33.26 40.46 25.70 98.0 Not Reported 1.12 NW 0.00 NW 1.12 NW No 0.000 No Precipitation 03/22/2019 09:11 PM 03/22/2019 09:16 PM 0.004 0.008 0.008 0.008 0.008 Not Reported Not Reported
03/22/2019 10:23 PM 33.62 33.62 33.44 40.46 25.70 99.0 Not Reported 0.67 SW 0.67 SW 2.91 N No 0.000 No Precipitation 03/22/2019 09:11 PM 03/22/2019 09:16 PM 0.000 0.008 0.008 0.008 0.008 Not Reported Not Reported
03/22/2019 10:38 PM 33.80 33.62 33.44 40.46 25.70 99.0 Not Reported 0.67 S 0.45 SE 1.79 N No 0.000 No Precipitation 03/22/2019 09:11 PM 03/22/2019 09:16 PM 0.000 0.008 0.008 0.008 0.008 Not Reported Not Reported
03/22/2019 10:53 PM 33.80 33.80 33.62 40.46 25.70 99.0 Not Reported 2.01 NW 2.01 W 2.01 W No 0.000 No Precipitation 03/22/2019 09:11 PM 03/22/2019 09:16 PM 0.000 0.008 0.008 0.008 0.008 Not Reported Not Reported
03/22/2019 11:08 PM 35.06 34.70 34.16 40.46 25.70 96.0 Not Reported 2.24 N 2.46 N 3.80 NW No 0.000 No Precipitation 03/22/2019 09:11 PM 03/22/2019 09:16 PM 0.000 0.008 0.008 0.008 0.008 Not Reported Not Reported
03/22/2019 11:23 PM 34.16 33.80 33.44 40.46 25.70 97.0 Not Reported 0.67 SW 0.89 W 2.91 NW No 0.000 No Precipitation 03/22/2019 09:11 PM 03/22/2019 09:16 PM 0.000 0.008 0.008 0.008 0.008 Not Reported Not Reported
03/22/2019 11:38 PM 34.34 33.98 33.62 40.46 25.70 97.0 Not Reported 0.67 W 0.89 SW 2.91 W No 0.000 No Precipitation 03/22/2019 09:11 PM 03/22/2019 09:16 PM 0.000 0.008 0.008 0.008 0.008 Not Reported Not Reported
03/22/2019 11:53 PM 34.70 34.52 33.98 40.46 25.70 97.0 Not Reported 2.46 W 3.13 NW 5.82 W No 0.000 No Precipitation 03/22/2019 09:11 PM 03/22/2019 09:16 PM 0.000 0.004 0.008 0.008 0.008 Not Reported Not Reported